createdAt,value
2019-03-24T00:02:24.112Z,101811.12
2019-03-24T00:04:53.292Z,101816.80
2019-03-24T00:07:22.504Z,101811.80
2019-03-24T00:09:51.703Z,101815.36
2019-03-24T00:12:20.910Z,101816.91
2019-03-24T00:14:50.241Z,101813.31
2019-03-24T00:17:19.516Z,101814.50
2019-03-24T00:19:48.738Z,101822.77
2019-03-24T00:22:17.997Z,101824.94
2019-03-24T00:24:47.201Z,101814.90
2019-03-24T00:27:16.750Z,101819.82
2019-03-24T00:29:45.953Z,101815.94
2019-03-24T00:32:15.160Z,101812.02
2019-03-24T00:34:44.395Z,101817.24
2019-03-24T00:37:13.601Z,101814.50
2019-03-24T00:39:42.834Z,101811.80
2019-03-24T00:42:12.104Z,101808.77
2019-03-24T00:44:41.371Z,101802.58
2019-03-24T00:47:10.600Z,101809.19
2019-03-24T00:49:40.129Z,101803.02
2019-03-24T00:52:09.598Z,101797.41
2019-03-24T00:54:38.818Z,101801.53
2019-03-24T00:57:08.029Z,101793.29
2019-03-24T00:59:37.565Z,101787.06
2019-03-24T01:02:06.824Z,101780.59
2019-03-24T01:04:36.401Z,101781.70
2019-03-24T01:07:05.696Z,101780.04
2019-03-24T01:09:34.888Z,101784.03
2019-03-24T01:12:04.563Z,101780.95
2019-03-24T01:14:33.777Z,101776.24
2019-03-24T01:17:02.976Z,101779.08
2019-03-24T01:19:32.219Z,101781.35
2019-03-24T01:22:01.540Z,101768.09
2019-03-24T01:24:30.741Z,101768.39
2019-03-24T01:26:59.941Z,101770.65
2019-03-24T01:29:29.173Z,101774.69
2019-03-24T01:31:58.734Z,101775.19
2019-03-24T01:34:27.937Z,101772.50
2019-03-24T01:36:57.158Z,101769.84
2019-03-24T01:39:26.441Z,101768.06
2019-03-24T01:41:55.665Z,101759.94
2019-03-24T01:44:24.886Z,101765.09
2019-03-24T01:46:54.077Z,101762.61
2019-03-24T01:49:23.264Z,101766.33
2019-03-24T01:51:52.488Z,101760.56
2019-03-24T01:54:21.924Z,101765.95
2019-03-24T01:56:51.469Z,101763.34
2019-03-24T01:59:20.693Z,101768.66
2019-03-24T02:01:49.896Z,101765.97
2019-03-24T02:04:19.091Z,101768.72
2019-03-24T02:06:48.321Z,101768.91
2019-03-24T02:09:17.610Z,101765.53
2019-03-24T02:11:46.827Z,101765.47
2019-03-24T02:14:16.171Z,101762.98
2019-03-24T02:16:45.390Z,101767.56
2019-03-24T02:19:14.593Z,101762.45
2019-03-24T02:21:43.790Z,101760.60
2019-03-24T02:24:13.009Z,101766.55
2019-03-24T02:26:42.571Z,101762.39
2019-03-24T02:29:11.843Z,101765.02
2019-03-24T02:31:41.056Z,101759.81
2019-03-24T02:34:10.259Z,101758.08
2019-03-24T02:36:39.464Z,101760.64
2019-03-24T02:39:09.373Z,101760.41
2019-03-24T02:41:38.568Z,101761.06
2019-03-24T02:44:07.770Z,101771.19
2019-03-24T02:46:37.003Z,101763.41
2019-03-24T02:49:06.225Z,101760.80
2019-03-24T02:51:35.465Z,101762.80
2019-03-24T02:54:05.327Z,101761.81
2019-03-24T02:56:34.534Z,101756.13
2019-03-24T02:59:03.854Z,101754.67
2019-03-24T03:01:33.053Z,101756.20
2019-03-24T03:04:02.258Z,101750.56
2019-03-24T03:06:31.484Z,101751.95
2019-03-24T03:09:00.718Z,101744.90
2019-03-24T03:11:29.910Z,101741.30
2019-03-24T03:13:59.150Z,101737.50
2019-03-24T03:16:38.213Z,101735.23
2019-03-24T03:18:59.295Z,101729.56
2019-03-24T03:21:28.504Z,101730.17
2019-03-24T03:23:57.704Z,101729.22
2019-03-24T03:26:26.921Z,101732.34
2019-03-24T03:28:56.121Z,101733.37
2019-03-24T03:31:25.319Z,101727.84
2019-03-24T03:33:54.538Z,101720.92
2019-03-24T03:36:23.757Z,101729.56
2019-03-24T03:38:52.982Z,101720.40
2019-03-24T03:41:22.197Z,101724.45
2019-03-24T03:43:51.413Z,101718.45
2019-03-24T03:46:20.605Z,101713.07
2019-03-24T03:48:49.840Z,101710.83
2019-03-24T03:51:19.049Z,101708.97
2019-03-24T03:53:48.245Z,101704.29
2019-03-24T03:56:17.479Z,101706.70
2019-03-24T03:58:46.677Z,101699.11
2019-03-24T04:01:15.884Z,101699.11
2019-03-24T04:03:45.114Z,101693.80
2019-03-24T04:06:14.315Z,101692.62
2019-03-24T04:08:43.525Z,101693.80
2019-03-24T04:11:12.760Z,101690.00
2019-03-24T04:13:41.980Z,101696.06
2019-03-24T04:16:11.197Z,101694.89
2019-03-24T04:18:40.422Z,101690.06
2019-03-24T04:21:09.627Z,101699.27
2019-03-24T04:23:39.169Z,101695.55
2019-03-24T04:26:08.376Z,101690.74
2019-03-24T04:28:37.601Z,101688.69
2019-03-24T04:31:06.799Z,101684.26
2019-03-24T04:33:35.996Z,101682.94
2019-03-24T04:36:05.281Z,101684.82
2019-03-24T04:38:34.509Z,101679.30
2019-03-24T04:41:03.729Z,101683.02
2019-03-24T04:43:32.963Z,101680.67
2019-03-24T04:46:02.172Z,101672.38
2019-03-24T04:48:31.376Z,101669.27
2019-03-24T04:51:00.607Z,101665.54
2019-03-24T04:53:29.808Z,101667.14
2019-03-24T04:55:59.015Z,101666.31
2019-03-24T04:58:28.257Z,101673.95
2019-03-24T05:00:57.467Z,101679.67
2019-03-24T05:03:26.664Z,101682.80
2019-03-24T05:05:56.149Z,101676.25
2019-03-24T05:08:26.320Z,101682.34
2019-03-24T05:10:55.517Z,101687.30
2019-03-24T05:13:24.742Z,101687.35
2019-03-24T05:15:53.972Z,101682.06
2019-03-24T05:18:23.981Z,101680.58
2019-03-24T05:20:53.204Z,101682.22
2019-03-24T05:23:22.409Z,101681.98
2019-03-24T05:25:51.656Z,101678.80
2019-03-24T05:28:20.882Z,101679.19
2019-03-24T05:30:50.149Z,101678.63
2019-03-24T05:33:19.378Z,101673.34
2019-03-24T05:35:48.579Z,101666.72
2019-03-24T05:38:17.811Z,101668.53
2019-03-24T05:40:47.015Z,101665.08
2019-03-24T05:43:16.247Z,101665.17
2019-03-24T05:45:46.708Z,101665.72
2019-03-24T05:48:15.935Z,101671.13
2019-03-24T05:50:45.149Z,101661.59
2019-03-24T05:53:14.395Z,101677.66
2019-03-24T05:55:43.944Z,101662.77
2019-03-24T05:58:13.235Z,101658.62
2019-03-24T06:00:42.483Z,101654.20
2019-03-24T06:03:11.706Z,101654.05
2019-03-24T06:05:41.228Z,101652.79
2019-03-24T06:08:10.466Z,101661.39
2019-03-24T06:10:39.665Z,101668.86
2019-03-24T06:13:08.886Z,101664.57
2019-03-24T06:15:38.355Z,101664.32
2019-03-24T06:18:07.555Z,101661.50
2019-03-24T06:20:36.801Z,101661.09
2019-03-24T06:23:06.004Z,101660.53
2019-03-24T06:25:35.223Z,101662.70
2019-03-24T06:28:04.532Z,101664.88
2019-03-24T06:30:33.738Z,101658.91
2019-03-24T06:33:03.030Z,101663.92
2019-03-24T06:35:33.293Z,101654.57
2019-03-24T06:38:02.961Z,101652.63
2019-03-24T06:40:32.206Z,101649.75
2019-03-24T06:43:01.440Z,101638.28
2019-03-24T06:45:31.400Z,101639.45
2019-03-24T06:48:00.594Z,101638.84
2019-03-24T06:50:29.821Z,101637.66
2019-03-24T06:52:59.030Z,101631.09
2019-03-24T06:55:28.319Z,101633.69
2019-03-24T06:57:57.832Z,101637.13
2019-03-24T07:00:27.062Z,101633.22
2019-03-24T07:02:56.533Z,101630.72
2019-03-24T07:05:25.778Z,101629.02
2019-03-24T07:07:54.983Z,101623.13
2019-03-24T07:10:24.252Z,101627.31
2019-03-24T07:12:53.492Z,101627.42
2019-03-24T07:15:23.077Z,101623.26
2019-03-24T07:17:52.990Z,101624.29
2019-03-24T07:20:22.311Z,101612.05
2019-03-24T07:22:51.777Z,101607.42
2019-03-24T07:25:20.974Z,101607.58
2019-03-24T07:27:50.208Z,101610.23
2019-03-24T07:30:19.566Z,101615.86
2019-03-24T07:32:49.071Z,101612.38
2019-03-24T07:35:18.476Z,101607.09
2019-03-24T07:37:47.770Z,101609.57
2019-03-24T07:40:17.156Z,101610.00
2019-03-24T07:42:46.367Z,101604.97
2019-03-24T07:45:15.849Z,101608.38
2019-03-24T07:47:45.043Z,101609.23
2019-03-24T07:50:14.470Z,101613.20
2019-03-24T07:52:43.692Z,101604.66
2019-03-24T07:55:13.043Z,101606.91
2019-03-24T07:57:42.277Z,101596.58
2019-03-24T08:00:13.849Z,101596.55
2019-03-24T08:02:51.740Z,101586.89
2019-03-24T08:05:21.069Z,101592.92
2019-03-24T08:07:50.270Z,101590.84
2019-03-24T08:10:21.717Z,101587.20
2019-03-24T08:12:50.917Z,101581.54
2019-03-24T08:15:20.160Z,101581.69
2019-03-24T08:17:49.389Z,101580.89
2019-03-24T08:20:18.617Z,101578.97
2019-03-24T08:22:47.825Z,101574.62
2019-03-24T08:25:19.069Z,101573.04
2019-03-24T08:27:47.989Z,101566.54
2019-03-24T08:30:26.063Z,101571.56
2019-03-24T08:32:55.316Z,101565.66
2019-03-24T08:35:24.579Z,101576.35
2019-03-24T08:37:53.798Z,101577.22
2019-03-24T08:40:23.028Z,101573.41
2019-03-24T08:42:52.304Z,101564.98
2019-03-24T08:45:28.767Z,101569.98
2019-03-24T08:47:58.539Z,101564.39
2019-03-24T08:50:27.928Z,101569.05
2019-03-24T08:52:57.319Z,101573.94
2019-03-24T08:55:26.521Z,101572.06
2019-03-24T08:57:55.724Z,101576.70
2019-03-24T09:00:30.722Z,101573.66
2019-03-24T09:02:55.908Z,101579.37
2019-03-24T09:05:25.120Z,101587.36
2019-03-24T09:07:54.353Z,101586.61
2019-03-24T09:10:23.885Z,101584.23
2019-03-24T09:12:53.387Z,101579.55
2019-03-24T09:15:22.666Z,101571.34
2019-03-24T09:17:51.892Z,101572.80
2019-03-24T09:20:21.095Z,101558.33
2019-03-24T09:22:50.317Z,101551.97
2019-03-24T09:25:19.570Z,101548.19
2019-03-24T09:27:48.743Z,101536.54
2019-03-24T09:30:46.533Z,101532.25
2019-03-24T09:33:15.760Z,101522.00
2019-03-24T09:35:44.964Z,101519.45
2019-03-24T09:38:14.218Z,101516.91
2019-03-24T09:40:43.413Z,101517.73
2019-03-24T09:43:12.616Z,101508.28
2019-03-24T09:45:41.868Z,101506.00
2019-03-24T09:48:11.068Z,101502.02
2019-03-24T09:50:40.277Z,101487.65
2019-03-24T09:53:09.668Z,101473.83
2019-03-24T09:55:38.887Z,101469.45
2019-03-24T09:58:08.226Z,101478.75
2019-03-24T10:00:37.413Z,101475.95
2019-03-24T10:03:06.704Z,101476.37
2019-03-24T10:05:35.939Z,101475.00
2019-03-24T10:08:05.329Z,101458.53
2019-03-24T10:10:34.545Z,101459.05
2019-03-24T10:13:03.777Z,101443.20
2019-03-24T10:15:33.024Z,101436.66
2019-03-24T10:18:02.269Z,101437.44
2019-03-24T10:20:31.498Z,101428.22
2019-03-24T10:23:00.732Z,101424.88
2019-03-24T10:25:30.460Z,101422.84
2019-03-24T10:27:59.673Z,101425.05
2019-03-24T10:30:28.899Z,101422.83
2019-03-24T10:32:58.214Z,101418.91
2019-03-24T10:35:27.417Z,101427.46
2019-03-24T10:37:56.663Z,101419.76
2019-03-24T10:40:28.913Z,101422.56
2019-03-24T10:42:56.790Z,101417.41
2019-03-24T10:45:26.285Z,101411.44
2019-03-24T10:47:55.609Z,101411.44
2019-03-24T10:50:24.811Z,101404.38
2019-03-24T10:52:54.018Z,101398.75
2019-03-24T10:55:23.277Z,101398.75
2019-03-24T10:57:52.489Z,101403.66
2019-03-24T11:00:37.842Z,101401.41
2019-03-24T11:03:07.147Z,101394.88
2019-03-24T11:05:36.443Z,101387.52
2019-03-24T11:08:05.784Z,101392.46
2019-03-24T11:10:34.995Z,101383.26
2019-03-24T11:13:04.296Z,101387.34
2019-03-24T11:15:33.528Z,101389.67
2019-03-24T11:18:02.750Z,101395.48
2019-03-24T11:20:31.971Z,101393.63
2019-03-24T11:23:01.207Z,101377.27
2019-03-24T11:25:30.410Z,101367.41
2019-03-24T11:28:00.017Z,101360.87
2019-03-24T11:30:29.234Z,101366.22
2019-03-24T11:32:58.431Z,101364.10
2019-03-24T11:35:27.661Z,101357.45
2019-03-24T11:37:56.868Z,101360.23
2019-03-24T11:40:26.123Z,101343.80
2019-03-24T11:42:55.359Z,101347.55
2019-03-24T11:45:24.552Z,101331.47
2019-03-24T11:47:53.786Z,101322.88
2019-03-24T11:50:23.074Z,101320.12
2019-03-24T11:52:52.303Z,101310.08
2019-03-24T11:55:21.508Z,101325.26
2019-03-24T11:57:51.606Z,101318.18
2019-03-24T12:00:28.353Z,101316.90
2019-03-24T12:02:57.567Z,101309.25
2019-03-24T12:05:26.780Z,101309.25
2019-03-24T12:07:56.007Z,101299.56
2019-03-24T12:10:25.292Z,101296.19
2019-03-24T12:12:54.532Z,101290.19
2019-03-24T12:15:24.137Z,101296.22
2019-03-24T12:17:53.390Z,101300.41
2019-03-24T12:20:22.667Z,101291.46
2019-03-24T12:22:51.870Z,101296.57
2019-03-24T12:25:21.133Z,101287.19
2019-03-24T12:27:50.378Z,101291.47
2019-03-24T12:30:21.728Z,101293.28
2019-03-24T12:32:50.934Z,101289.92
2019-03-24T12:35:20.155Z,101287.43
2019-03-24T12:37:49.358Z,101293.16
2019-03-24T12:40:18.689Z,101287.79
2019-03-24T12:42:48.009Z,101275.81
2019-03-24T12:45:17.318Z,101276.98
2019-03-24T12:47:49.195Z,101267.09
2019-03-24T12:50:18.392Z,101262.28
2019-03-24T12:52:47.615Z,101251.73
2019-03-24T12:55:16.858Z,101246.27
2019-03-24T12:57:48.723Z,101255.08
2019-03-24T13:00:34.905Z,101241.10
2019-03-24T13:03:04.349Z,101241.91
2019-03-24T13:05:33.630Z,101250.75
2019-03-24T13:08:13.099Z,101250.03
2019-03-24T13:10:42.858Z,101242.03
2019-03-24T13:13:12.141Z,101240.12
2019-03-24T13:15:41.376Z,101234.36
2019-03-24T13:18:10.688Z,101233.33
2019-03-24T13:20:39.923Z,101232.55
2019-03-24T13:23:09.139Z,101223.77
2019-03-24T13:25:38.390Z,101228.55
2019-03-24T13:28:07.596Z,101231.42
2019-03-24T13:30:36.792Z,101222.59
2019-03-24T13:33:06.434Z,101218.12
2019-03-24T13:35:35.640Z,101221.71
2019-03-24T13:38:06.233Z,101218.90
2019-03-24T13:40:35.466Z,101232.48
2019-03-24T13:43:04.774Z,101219.73
2019-03-24T13:45:33.979Z,101222.63
2019-03-24T13:48:03.243Z,101212.16
2019-03-24T13:50:32.444Z,101207.16
2019-03-24T13:53:01.657Z,101202.23
2019-03-24T13:55:30.872Z,101210.30
2019-03-24T13:58:00.140Z,101216.20
2019-03-24T14:00:29.423Z,101213.95
2019-03-24T14:02:58.713Z,101212.33
2019-03-24T14:05:27.956Z,101214.55
2019-03-24T14:07:57.165Z,101220.66
2019-03-24T14:10:26.401Z,101221.73
2019-03-24T14:12:55.636Z,101218.84
2019-03-24T14:15:25.158Z,101218.98
2019-03-24T14:17:54.352Z,101209.59
2019-03-24T14:20:23.587Z,101199.83
2019-03-24T14:22:55.229Z,101200.85
2019-03-24T14:25:23.769Z,101195.33
2019-03-24T14:27:52.991Z,101196.65
2019-03-24T14:30:40.194Z,101199.58
2019-03-24T14:33:09.467Z,101207.67
2019-03-24T14:35:39.543Z,101202.41
2019-03-24T14:38:09.082Z,101200.94
2019-03-24T14:40:38.378Z,101192.70
2019-03-24T14:43:07.684Z,101185.05
2019-03-24T14:45:36.910Z,101183.52
2019-03-24T14:48:06.187Z,101182.44
2019-03-24T14:50:35.444Z,101187.05
2019-03-24T14:53:04.786Z,101182.34
2019-03-24T14:55:33.841Z,101184.47
2019-03-24T14:58:03.725Z,101173.83
2019-03-24T15:00:37.949Z,101169.62
2019-03-24T15:03:07.360Z,101167.73
2019-03-24T15:05:36.621Z,101174.27
2019-03-24T15:08:06.884Z,101165.91
2019-03-24T15:10:36.191Z,101169.33
2019-03-24T15:13:06.103Z,101170.66
2019-03-24T15:15:35.323Z,101168.87
2019-03-24T15:18:05.792Z,101157.04
2019-03-24T15:20:35.097Z,101155.23
2019-03-24T15:23:04.690Z,101155.37
2019-03-24T15:25:33.923Z,101147.30
2019-03-24T15:28:03.455Z,101148.36
2019-03-24T15:30:33.603Z,101143.69
2019-03-24T15:33:02.872Z,101144.27
2019-03-24T15:35:32.075Z,101146.80
2019-03-24T15:38:08.130Z,101146.42
2019-03-24T15:40:32.234Z,101143.84
2019-03-24T15:43:01.479Z,101148.77
2019-03-24T15:45:30.682Z,101142.58
2019-03-24T15:47:59.932Z,101139.75
2019-03-24T15:50:29.438Z,101150.45
2019-03-24T15:52:58.659Z,101152.06
2019-03-24T15:55:27.862Z,101149.45
2019-03-24T15:57:57.063Z,101140.87
2019-03-24T16:00:43.323Z,101132.55
2019-03-24T16:03:12.658Z,101127.82
2019-03-24T16:05:41.958Z,101133.33
2019-03-24T16:08:11.450Z,101127.27
2019-03-24T16:10:40.847Z,101132.59
2019-03-24T16:13:10.050Z,101139.60
2019-03-24T16:15:39.252Z,101141.67
2019-03-24T16:18:08.466Z,101141.64
2019-03-24T16:20:37.763Z,101132.67
2019-03-24T16:23:07.289Z,101136.39
2019-03-24T16:25:36.762Z,101125.14
2019-03-24T16:28:07.511Z,101132.27
2019-03-24T16:30:36.737Z,101126.42
2019-03-24T16:33:06.197Z,101125.78
2019-03-24T16:35:35.483Z,101124.34
2019-03-24T16:38:05.662Z,101126.65
2019-03-24T16:40:34.885Z,101130.56
2019-03-24T16:43:04.106Z,101132.73
2019-03-24T16:45:33.715Z,101134.45
2019-03-24T16:48:06.707Z,101134.28
2019-03-24T16:50:40.183Z,101132.98
2019-03-24T16:53:15.054Z,101129.95
2019-03-24T16:55:44.919Z,101126.34
2019-03-24T16:58:14.624Z,101122.22
2019-03-24T17:00:43.919Z,101121.02
2019-03-24T17:03:13.142Z,101117.83
2019-03-24T17:05:44.101Z,101130.28
2019-03-24T17:08:13.324Z,101129.70
2019-03-24T17:10:42.516Z,101125.11
2019-03-24T17:13:11.751Z,101124.22
2019-03-24T17:15:40.935Z,101121.98
2019-03-24T17:18:11.138Z,101114.27
2019-03-24T17:20:40.362Z,101120.31
2019-03-24T17:23:09.605Z,101118.52
2019-03-24T17:25:38.798Z,101121.64
2019-03-24T17:28:08.288Z,101119.03
2019-03-24T17:30:37.508Z,101122.25
2019-03-24T17:33:06.784Z,101114.15
2019-03-24T17:35:37.093Z,101115.45
2019-03-24T17:38:07.105Z,101115.34
2019-03-24T17:40:38.996Z,101114.08
2019-03-24T17:43:12.083Z,101123.34
2019-03-24T17:45:46.011Z,101122.63
2019-03-24T17:48:17.665Z,101121.25
2019-03-24T17:50:46.886Z,101116.91
2019-03-24T17:53:16.364Z,101115.82
2019-03-24T17:55:45.587Z,101116.83
2019-03-24T17:58:15.404Z,101123.75
2019-03-24T18:00:50.907Z,101129.83
2019-03-24T18:03:20.158Z,101125.72
2019-03-24T18:05:49.443Z,101122.11
2019-03-24T18:08:18.642Z,101117.69
2019-03-24T18:10:47.862Z,101114.19
2019-03-24T18:13:19.945Z,101116.00
2019-03-24T18:15:52.696Z,101118.32
2019-03-24T18:18:26.150Z,101119.13
2019-03-24T18:20:58.749Z,101121.39
2019-03-24T18:23:37.309Z,101114.75
2019-03-24T18:26:11.653Z,101117.52
2019-03-24T18:28:41.355Z,101117.66
2019-03-24T18:31:12.118Z,101124.07
2019-03-24T18:33:42.333Z,101130.12
2019-03-24T18:36:11.578Z,101131.31
2019-03-24T18:38:40.790Z,101127.59
2019-03-24T18:41:09.985Z,101122.70
2019-03-24T18:43:39.222Z,101125.82
2019-03-24T18:46:08.407Z,101121.98
2019-03-24T18:48:37.636Z,101119.77
2019-03-24T18:51:07.166Z,101126.48
2019-03-24T18:53:36.365Z,101129.63
2019-03-24T18:56:05.730Z,101132.50
2019-03-24T18:58:34.882Z,101129.70
2019-03-24T19:01:04.086Z,101128.91
2019-03-24T19:03:33.327Z,101130.72
2019-03-24T19:06:02.516Z,101128.05
2019-03-24T19:08:31.737Z,101122.97
2019-03-24T19:11:01.020Z,101126.47
2019-03-24T19:13:30.206Z,101122.95
2019-03-24T19:15:59.438Z,101127.69
2019-03-24T19:18:28.643Z,101121.47
2019-03-24T19:20:57.829Z,101110.76
2019-03-24T19:23:27.155Z,101112.00
2019-03-24T19:25:56.376Z,101104.69
2019-03-24T19:28:25.575Z,101103.84
2019-03-24T19:30:55.299Z,101102.37
2019-03-24T19:33:24.493Z,101108.35
2019-03-24T19:35:53.684Z,101108.63
2019-03-24T19:38:23.603Z,101100.86
2019-03-24T19:40:52.800Z,101095.23
2019-03-24T19:43:22.018Z,101093.77
2019-03-24T19:45:51.635Z,101093.48
2019-03-24T19:48:20.833Z,101096.54
2019-03-24T19:50:50.056Z,101093.28
2019-03-24T19:53:19.270Z,101093.85
2019-03-24T19:55:48.471Z,101096.72
2019-03-24T19:58:17.682Z,101091.95
2019-03-24T20:00:46.958Z,101097.02
2019-03-24T20:03:16.174Z,101093.41
2019-03-24T20:05:45.372Z,101099.39
2019-03-24T20:08:14.611Z,101100.23
2019-03-24T20:10:43.813Z,101099.35
2019-03-24T20:13:13.098Z,101097.16
2019-03-24T20:15:42.405Z,101097.67
2019-03-24T20:18:11.617Z,101092.20
2019-03-24T20:20:41.149Z,101088.53
2019-03-24T20:23:10.364Z,101089.95
2019-03-24T20:25:39.579Z,101084.27
2019-03-24T20:28:09.453Z,101080.89
2019-03-24T20:30:38.653Z,101076.12
2019-03-24T20:33:07.872Z,101083.37
2019-03-24T20:35:37.108Z,101076.30
2019-03-24T20:38:06.344Z,101074.64
2019-03-24T20:40:35.545Z,101068.79
2019-03-24T20:43:04.841Z,101065.52
2019-03-24T20:45:35.242Z,101055.13
2019-03-24T20:48:04.504Z,101058.51
2019-03-24T20:50:33.794Z,101049.32
2019-03-24T20:53:05.693Z,101053.48
2019-03-24T20:55:34.518Z,101052.98
2019-03-24T20:58:03.953Z,101048.63
2019-03-24T21:00:35.168Z,101049.20
2019-03-24T21:03:06.470Z,101043.20
2019-03-24T21:05:35.769Z,101045.11
2019-03-24T21:08:05.937Z,101046.09
2019-03-24T21:10:35.584Z,101044.02
2019-03-24T21:13:05.012Z,101040.64
2019-03-24T21:15:34.210Z,101044.22
2019-03-24T21:18:03.490Z,101042.07
2019-03-24T21:20:32.725Z,101042.86
2019-03-24T21:23:01.958Z,101037.08
2019-03-24T21:25:31.170Z,101045.18
2019-03-24T21:28:00.393Z,101035.40
2019-03-24T21:30:37.249Z,101031.92
2019-03-24T21:33:06.749Z,101028.40
2019-03-24T21:35:36.126Z,101025.62
2019-03-24T21:38:05.574Z,101027.51
2019-03-24T21:40:35.031Z,101019.39
2019-03-24T21:43:06.494Z,101008.48
2019-03-24T21:45:35.608Z,101004.39
2019-03-24T21:48:04.943Z,101000.56
2019-03-24T21:50:34.165Z,100996.26
2019-03-24T21:53:03.440Z,100988.59
2019-03-24T21:55:32.667Z,100983.81
2019-03-24T21:58:01.888Z,100981.02
2019-03-24T22:00:35.477Z,100975.25
2019-03-24T22:03:05.018Z,100977.23
2019-03-24T22:05:34.350Z,100970.75
2019-03-24T22:08:03.551Z,100962.14
2019-03-24T22:10:32.787Z,100954.16
2019-03-24T22:13:01.985Z,100953.33
2019-03-24T22:15:31.186Z,100945.70
2019-03-24T22:18:00.493Z,100948.46
2019-03-24T22:20:30.816Z,100942.30
2019-03-24T22:23:00.355Z,100940.25
2019-03-24T22:25:29.593Z,100942.25
2019-03-24T22:27:59.232Z,100941.58
2019-03-24T22:30:29.982Z,100942.25
2019-03-24T22:32:59.709Z,100936.97
2019-03-24T22:35:28.958Z,100937.27
2019-03-24T22:37:58.533Z,100932.88
2019-03-24T22:40:27.754Z,100930.09
2019-03-24T22:42:57.050Z,100939.30
2019-03-24T22:45:26.644Z,100939.61
2019-03-24T22:47:56.141Z,100938.80
2019-03-24T22:50:28.679Z,100940.66
2019-03-24T22:52:58.574Z,100941.63
2019-03-24T22:55:28.030Z,100935.50
2019-03-24T22:57:57.262Z,100930.08
2019-03-24T23:00:41.864Z,100928.59
2019-03-24T23:03:11.987Z,100920.52
2019-03-24T23:05:41.549Z,100917.99
2019-03-24T23:08:11.149Z,100913.39
2019-03-24T23:10:42.905Z,100915.12
2019-03-24T23:13:13.518Z,100900.83
2019-03-24T23:15:42.739Z,100902.73
2019-03-24T23:18:12.804Z,100899.55
2019-03-24T23:20:42.896Z,100898.89
2019-03-24T23:23:12.460Z,100895.23
2019-03-24T23:25:42.403Z,100888.09
2019-03-24T23:28:13.024Z,100886.38
2019-03-24T23:30:42.583Z,100887.23
2019-03-24T23:33:11.872Z,100874.55
2019-03-24T23:35:41.647Z,100870.62
2019-03-24T23:38:11.424Z,100864.42
2019-03-24T23:40:41.038Z,100858.60
2019-03-24T23:43:10.978Z,100855.09
2019-03-24T23:45:40.254Z,100847.41
2019-03-24T23:48:10.097Z,100841.67
2019-03-24T23:50:39.332Z,100843.48
2019-03-24T23:53:08.552Z,100830.50
2019-03-24T23:55:37.759Z,100832.66
2019-03-24T23:58:09.401Z,100829.20
